Terminal Aerodrome Forecast
Issued by NWS Cleveland, OH

Home | Current Version | Previous Version | Graphics & Text | Print | Product List | Glossary On
Versions: 1 2 3 4 5 6 7 8 9 10 11 12 13 14 15 16 17 18 19 20 21 22 23
167
FTUS41 KCLE 220702 AAA
TAFTOL
TAF AMD
KTOL 220702Z 2207/2306 00000KT 1/4SM FG VV004
     FM220830 VRB03KT 2SM BR OVC006
      TEMPO 2210/2213 3/4SM BR
     FM221500 VRB03KT 6SM HZ BKN025
     FM221800 06005KT P6SM BKN050
     FM230100 05008KT P6SM OVC025=

USA.gov is the U.S. government's official web portal to all federal, state and local government web resources and services.